sensor_id;sensor_type;location;lat;lon;timestamp;P1;durP1;ratioP1;P2;durP2;ratioP2
10677;SDS011;5387;48.722;9.110;2023-07-02T00:01:48;3.17;;;2.88;;
10677;SDS011;5387;48.722;9.110;2023-07-02T00:04:15;4.05;;;2.53;;
10677;SDS011;5387;48.722;9.110;2023-07-02T00:06:44;4.55;;;3.45;;
10677;SDS011;5387;48.722;9.110;2023-07-02T00:09:11;2.78;;;2.53;;
10677;SDS011;5387;48.722;9.110;2023-07-02T00:11:39;3.92;;;2.80;;
10677;SDS011;5387;48.722;9.110;2023-07-02T00:14:07;3.65;;;3.08;;
10677;SDS011;5387;48.722;9.110;2023-07-02T00:16:34;3.30;;;3.00;;
10677;SDS011;5387;48.722;9.110;2023-07-02T00:19:03;4.60;;;3.15;;
10677;SDS011;5387;48.722;9.110;2023-07-02T00:21:29;3.83;;;2.83;;
10677;SDS011;5387;48.722;9.110;2023-07-02T00:23:58;3.10;;;2.80;;
10677;SDS011;5387;48.722;9.110;2023-07-02T00:26:25;3.40;;;2.90;;
10677;SDS011;5387;48.722;9.110;2023-07-02T00:28:53;4.13;;;2.92;;
10677;SDS011;5387;48.722;9.110;2023-07-02T00:31:20;4.82;;;2.60;;
10677;SDS011;5387;48.722;9.110;2023-07-02T00:33:47;2.63;;;2.42;;
10677;SDS011;5387;48.722;9.110;2023-07-02T00:36:16;2.88;;;2.67;;
10677;SDS011;5387;48.722;9.110;2023-07-02T00:38:44;3.03;;;2.65;;
10677;SDS011;5387;48.722;9.110;2023-07-02T00:41:12;3.42;;;2.63;;
10677;SDS011;5387;48.722;9.110;2023-07-02T00:43:38;2.70;;;2.50;;
10677;SDS011;5387;48.722;9.110;2023-07-02T00:46:08;4.35;;;2.83;;
10677;SDS011;5387;48.722;9.110;2023-07-02T00:48:37;3.45;;;2.40;;
10677;SDS011;5387;48.722;9.110;2023-07-02T00:51:05;2.55;;;2.35;;
10677;SDS011;5387;48.722;9.110;2023-07-02T00:53:33;3.83;;;2.85;;
10677;SDS011;5387;48.722;9.110;2023-07-02T00:56:00;3.42;;;2.50;;
10677;SDS011;5387;48.722;9.110;2023-07-02T00:58:27;3.03;;;2.72;;
10677;SDS011;5387;48.722;9.110;2023-07-02T01:00:54;4.38;;;2.63;;
10677;SDS011;5387;48.722;9.110;2023-07-02T01:03:21;3.38;;;2.55;;
10677;SDS011;5387;48.722;9.110;2023-07-02T01:05:48;2.92;;;2.67;;
10677;SDS011;5387;48.722;9.110;2023-07-02T01:08:15;5.50;;;2.70;;
10677;SDS011;5387;48.722;9.110;2023-07-02T01:10:43;4.38;;;2.28;;
10677;SDS011;5387;48.722;9.110;2023-07-02T01:13:11;3.50;;;2.50;;
10677;SDS011;5387;48.722;9.110;2023-07-02T01:15:41;2.28;;;2.08;;
10677;SDS011;5387;48.722;9.110;2023-07-02T01:18:10;3.55;;;2.35;;
10677;SDS011;5387;48.722;9.110;2023-07-02T01:20:39;6.47;;;2.33;;
10677;SDS011;5387;48.722;9.110;2023-07-02T01:23:07;2.95;;;2.63;;
10677;SDS011;5387;48.722;9.110;2023-07-02T01:25:34;5.57;;;2.33;;
10677;SDS011;5387;48.722;9.110;2023-07-02T01:28:02;2.60;;;2.40;;
10677;SDS011;5387;48.722;9.110;2023-07-02T01:30:29;4.85;;;2.50;;
10677;SDS011;5387;48.722;9.110;2023-07-02T01:32:56;2.42;;;2.22;;
10677;SDS011;5387;48.722;9.110;2023-07-02T01:35:22;2.60;;;2.40;;
10677;SDS011;5387;48.722;9.110;2023-07-02T01:37:51;5.13;;;2.45;;
10677;SDS011;5387;48.722;9.110;2023-07-02T01:40:18;2.58;;;2.38;;
10677;SDS011;5387;48.722;9.110;2023-07-02T01:42:45;5.57;;;2.63;;
10677;SDS011;5387;48.722;9.110;2023-07-02T01:45:12;5.05;;;2.33;;
10677;SDS011;5387;48.722;9.110;2023-07-02T01:47:38;3.08;;;2.40;;
10677;SDS011;5387;48.722;9.110;2023-07-02T01:50:06;2.65;;;2.45;;
10677;SDS011;5387;48.722;9.110;2023-07-02T01:52:33;4.57;;;2.33;;
10677;SDS011;5387;48.722;9.110;2023-07-02T01:55:01;3.92;;;2.67;;
10677;SDS011;5387;48.722;9.110;2023-07-02T01:57:28;3.65;;;2.60;;
10677;SDS011;5387;48.722;9.110;2023-07-02T01:59:56;3.03;;;2.47;;
10677;SDS011;5387;48.722;9.110;2023-07-02T02:02:23;2.70;;;2.47;;
10677;SDS011;5387;48.722;9.110;2023-07-02T02:04:50;2.70;;;2.47;;
10677;SDS011;5387;48.722;9.110;2023-07-02T02:07:17;2.72;;;2.30;;
10677;SDS011;5387;48.722;9.110;2023-07-02T02:09:44;3.05;;;2.42;;
10677;SDS011;5387;48.722;9.110;2023-07-02T02:12:12;3.42;;;2.25;;
10677;SDS011;5387;48.722;9.110;2023-07-02T02:14:40;2.33;;;2.10;;
10677;SDS011;5387;48.722;9.110;2023-07-02T02:17:07;3.60;;;2.08;;
10677;SDS011;5387;48.722;9.110;2023-07-02T02:19:34;2.60;;;2.40;;
10677;SDS011;5387;48.722;9.110;2023-07-02T02:22:01;3.58;;;2.92;;
10677;SDS011;5387;48.722;9.110;2023-07-02T02:24:28;3.65;;;2.47;;
10677;SDS011;5387;48.722;9.110;2023-07-02T02:26:55;7.95;;;2.22;;
10677;SDS011;5387;48.722;9.110;2023-07-02T02:29:23;2.63;;;2.42;;
10677;SDS011;5387;48.722;9.110;2023-07-02T02:31:49;2.95;;;2.70;;
10677;SDS011;5387;48.722;9.110;2023-07-02T02:34:16;2.67;;;2.30;;
10677;SDS011;5387;48.722;9.110;2023-07-02T02:36:43;3.70;;;2.40;;
10677;SDS011;5387;48.722;9.110;2023-07-02T02:39:10;2.53;;;2.33;;
10677;SDS011;5387;48.722;9.110;2023-07-02T02:41:36;4.45;;;2.35;;
10677;SDS011;5387;48.722;9.110;2023-07-02T02:44:03;2.47;;;2.10;;
10677;SDS011;5387;48.722;9.110;2023-07-02T02:46:32;3.88;;;2.30;;
10677;SDS011;5387;48.722;9.110;2023-07-02T02:48:58;5.68;;;1.92;;
10677;SDS011;5387;48.722;9.110;2023-07-02T02:51:25;4.88;;;2.50;;
10677;SDS011;5387;48.722;9.110;2023-07-02T02:53:52;3.85;;;2.28;;
10677;SDS011;5387;48.722;9.110;2023-07-02T02:56:19;3.08;;;2.20;;
10677;SDS011;5387;48.722;9.110;2023-07-02T02:58:45;4.38;;;2.42;;
10677;SDS011;5387;48.722;9.110;2023-07-02T03:01:12;5.55;;;2.15;;
10677;SDS011;5387;48.722;9.110;2023-07-02T03:03:41;4.80;;;2.60;;
10677;SDS011;5387;48.722;9.110;2023-07-02T03:06:10;3.88;;;2.25;;
10677;SDS011;5387;48.722;9.110;2023-07-02T03:08:39;2.40;;;2.20;;
10677;SDS011;5387;48.722;9.110;2023-07-02T03:11:06;3.15;;;2.55;;
10677;SDS011;5387;48.722;9.110;2023-07-02T03:13:32;3.22;;;2.40;;
10677;SDS011;5387;48.722;9.110;2023-07-02T03:15:59;6.00;;;2.63;;
10677;SDS011;5387;48.722;9.110;2023-07-02T03:18:26;2.47;;;2.28;;
10677;SDS011;5387;48.722;9.110;2023-07-02T03:20:54;2.95;;;2.53;;
10677;SDS011;5387;48.722;9.110;2023-07-02T03:23:21;7.47;;;2.90;;
10677;SDS011;5387;48.722;9.110;2023-07-02T03:25:48;2.92;;;2.72;;
10677;SDS011;5387;48.722;9.110;2023-07-02T03:28:15;5.05;;;2.83;;
10677;SDS011;5387;48.722;9.110;2023-07-02T03:30:41;5.75;;;3.15;;
10677;SDS011;5387;48.722;9.110;2023-07-02T03:33:08;9.43;;;3.03;;
10677;SDS011;5387;48.722;9.110;2023-07-02T03:35:35;3.85;;;3.22;;
10677;SDS011;5387;48.722;9.110;2023-07-02T03:38:04;4.55;;;2.72;;
10677;SDS011;5387;48.722;9.110;2023-07-02T03:40:31;3.10;;;2.80;;
10677;SDS011;5387;48.722;9.110;2023-07-02T03:42:57;4.23;;;2.90;;
10677;SDS011;5387;48.722;9.110;2023-07-02T03:45:24;5.97;;;3.50;;
10677;SDS011;5387;48.722;9.110;2023-07-02T03:47:51;3.30;;;3.00;;
10677;SDS011;5387;48.722;9.110;2023-07-02T03:50:18;3.80;;;3.25;;
10677;SDS011;5387;48.722;9.110;2023-07-02T03:52:45;6.70;;;3.20;;
10677;SDS011;5387;48.722;9.110;2023-07-02T03:55:13;5.57;;;3.13;;
10677;SDS011;5387;48.722;9.110;2023-07-02T03:57:40;5.75;;;3.38;;
10677;SDS011;5387;48.722;9.110;2023-07-02T04:00:07;4.20;;;3.40;;
10677;SDS011;5387;48.722;9.110;2023-07-02T04:02:36;7.10;;;4.13;;
10677;SDS011;5387;48.722;9.110;2023-07-02T04:05:03;5.75;;;3.33;;
10677;SDS011;5387;48.722;9.110;2023-07-02T04:07:31;6.17;;;3.33;;
10677;SDS011;5387;48.722;9.110;2023-07-02T04:09:57;5.53;;;3.10;;
10677;SDS011;5387;48.722;9.110;2023-07-02T04:12:25;4.90;;;3.45;;
10677;SDS011;5387;48.722;9.110;2023-07-02T04:14:52;5.87;;;3.50;;
10677;SDS011;5387;48.722;9.110;2023-07-02T04:17:19;4.70;;;3.53;;
10677;SDS011;5387;48.722;9.110;2023-07-02T04:19:46;6.27;;;3.73;;
10677;SDS011;5387;48.722;9.110;2023-07-02T04:22:13;5.33;;;3.60;;
10677;SDS011;5387;48.722;9.110;2023-07-02T04:24:40;6.18;;;4.00;;
10677;SDS011;5387;48.722;9.110;2023-07-02T04:27:07;8.07;;;3.90;;
10677;SDS011;5387;48.722;9.110;2023-07-02T04:29:35;3.30;;;3.00;;
10677;SDS011;5387;48.722;9.110;2023-07-02T04:32:02;5.63;;;2.97;;
10677;SDS011;5387;48.722;9.110;2023-07-02T04:34:29;5.87;;;3.50;;
10677;SDS011;5387;48.722;9.110;2023-07-02T04:36:56;6.33;;;3.80;;
10677;SDS011;5387;48.722;9.110;2023-07-02T04:39:22;4.97;;;3.60;;
10677;SDS011;5387;48.722;9.110;2023-07-02T04:41:49;5.93;;;3.20;;
10677;SDS011;5387;48.722;9.110;2023-07-02T04:44:17;5.93;;;3.30;;
10677;SDS011;5387;48.722;9.110;2023-07-02T04:46:47;5.75;;;3.13;;
10677;SDS011;5387;48.722;9.110;2023-07-02T04:49:14;3.53;;;3.07;;
10677;SDS011;5387;48.722;9.110;2023-07-02T04:51:41;4.43;;;3.25;;
10677;SDS011;5387;48.722;9.110;2023-07-02T04:54:08;7.60;;;3.40;;
10677;SDS011;5387;48.722;9.110;2023-07-02T04:56:35;4.17;;;3.37;;
10677;SDS011;5387;48.722;9.110;2023-07-02T04:59:02;3.90;;;2.97;;
10677;SDS011;5387;48.722;9.110;2023-07-02T05:01:28;3.85;;;3.15;;
10677;SDS011;5387;48.722;9.110;2023-07-02T05:03:56;4.22;;;3.35;;
10677;SDS011;5387;48.722;9.110;2023-07-02T05:06:23;4.75;;;3.00;;
10677;SDS011;5387;48.722;9.110;2023-07-02T05:08:50;4.38;;;3.30;;
10677;SDS011;5387;48.722;9.110;2023-07-02T05:11:17;8.40;;;3.88;;
10677;SDS011;5387;48.722;9.110;2023-07-02T05:13:44;5.85;;;3.35;;
10677;SDS011;5387;48.722;9.110;2023-07-02T05:16:11;6.72;;;3.35;;
10677;SDS011;5387;48.722;9.110;2023-07-02T05:18:38;3.42;;;3.10;;
10677;SDS011;5387;48.722;9.110;2023-07-02T05:21:06;5.07;;;3.45;;
10677;SDS011;5387;48.722;9.110;2023-07-02T05:23:33;5.80;;;3.15;;
10677;SDS011;5387;48.722;9.110;2023-07-02T05:26:00;5.93;;;3.30;;
10677;SDS011;5387;48.722;9.110;2023-07-02T05:28:27;5.18;;;3.15;;
10677;SDS011;5387;48.722;9.110;2023-07-02T05:30:54;6.53;;;3.40;;
10677;SDS011;5387;48.722;9.110;2023-07-02T05:33:21;7.20;;;3.33;;
10677;SDS011;5387;48.722;9.110;2023-07-02T05:35:48;6.70;;;3.42;;
10677;SDS011;5387;48.722;9.110;2023-07-02T05:38:17;5.47;;;3.70;;
10677;SDS011;5387;48.722;9.110;2023-07-02T05:40:44;4.60;;;3.35;;
10677;SDS011;5387;48.722;9.110;2023-07-02T05:43:10;5.10;;;3.05;;
10677;SDS011;5387;48.722;9.110;2023-07-02T05:45:37;5.10;;;4.10;;
10677;SDS011;5387;48.722;9.110;2023-07-02T05:48:04;5.18;;;2.97;;
10677;SDS011;5387;48.722;9.110;2023-07-02T05:50:31;5.10;;;3.55;;
10677;SDS011;5387;48.722;9.110;2023-07-02T05:52:58;7.13;;;3.47;;
10677;SDS011;5387;48.722;9.110;2023-07-02T05:55:26;9.60;;;3.50;;
10677;SDS011;5387;48.722;9.110;2023-07-02T05:57:53;5.63;;;3.75;;
10677;SDS011;5387;48.722;9.110;2023-07-02T06:00:22;6.50;;;3.75;;
10677;SDS011;5387;48.722;9.110;2023-07-02T06:02:49;11.90;;;5.15;;
10677;SDS011;5387;48.722;9.110;2023-07-02T06:05:16;9.60;;;4.38;;
10677;SDS011;5387;48.722;9.110;2023-07-02T06:07:42;11.93;;;4.22;;
10677;SDS011;5387;48.722;9.110;2023-07-02T06:10:09;8.15;;;4.20;;
10677;SDS011;5387;48.722;9.110;2023-07-02T06:12:37;8.25;;;4.43;;
10677;SDS011;5387;48.722;9.110;2023-07-02T06:15:05;7.70;;;4.63;;
10677;SDS011;5387;48.722;9.110;2023-07-02T06:17:32;6.57;;;4.82;;
10677;SDS011;5387;48.722;9.110;2023-07-02T06:19:59;11.18;;;6.05;;
10677;SDS011;5387;48.722;9.110;2023-07-02T06:22:26;13.18;;;5.28;;
10677;SDS011;5387;48.722;9.110;2023-07-02T06:24:52;10.60;;;5.43;;
10677;SDS011;5387;48.722;9.110;2023-07-02T06:27:19;12.32;;;6.20;;
10677;SDS011;5387;48.722;9.110;2023-07-02T06:29:47;12.27;;;5.53;;
10677;SDS011;5387;48.722;9.110;2023-07-02T06:32:14;11.35;;;5.82;;
10677;SDS011;5387;48.722;9.110;2023-07-02T06:34:41;10.48;;;6.05;;
10677;SDS011;5387;48.722;9.110;2023-07-02T06:37:08;10.88;;;5.97;;
10677;SDS011;5387;48.722;9.110;2023-07-02T06:39:35;11.30;;;5.85;;
10677;SDS011;5387;48.722;9.110;2023-07-02T06:42:02;11.57;;;5.97;;
10677;SDS011;5387;48.722;9.110;2023-07-02T06:44:29;11.02;;;5.93;;
10677;SDS011;5387;48.722;9.110;2023-07-02T06:46:57;14.13;;;5.78;;
10677;SDS011;5387;48.722;9.110;2023-07-02T06:49:23;14.88;;;6.38;;
10677;SDS011;5387;48.722;9.110;2023-07-02T06:51:50;10.32;;;5.93;;
10677;SDS011;5387;48.722;9.110;2023-07-02T06:54:17;12.45;;;6.43;;
10677;SDS011;5387;48.722;9.110;2023-07-02T06:56:44;12.52;;;6.20;;
10677;SDS011;5387;48.722;9.110;2023-07-02T06:59:10;14.25;;;6.38;;
10677;SDS011;5387;48.722;9.110;2023-07-02T07:01:37;11.88;;;6.47;;
10677;SDS011;5387;48.722;9.110;2023-07-02T07:04:05;12.73;;;6.97;;
10677;SDS011;5387;48.722;9.110;2023-07-02T07:06:32;13.32;;;6.53;;
10677;SDS011;5387;48.722;9.110;2023-07-02T07:08:59;11.88;;;6.47;;
10677;SDS011;5387;48.722;9.110;2023-07-02T07:11:26;16.02;;;6.90;;
10677;SDS011;5387;48.722;9.110;2023-07-02T07:13:52;17.65;;;7.60;;
10677;SDS011;5387;48.722;9.110;2023-07-02T07:16:19;11.82;;;6.10;;
10677;SDS011;5387;48.722;9.110;2023-07-02T07:18:47;16.58;;;7.63;;
10677;SDS011;5387;48.722;9.110;2023-07-02T07:21:16;13.95;;;7.18;;
10677;SDS011;5387;48.722;9.110;2023-07-02T07:23:42;18.60;;;7.57;;
10677;SDS011;5387;48.722;9.110;2023-07-02T07:26:09;18.40;;;8.10;;
10677;SDS011;5387;48.722;9.110;2023-07-02T07:28:36;16.70;;;7.45;;
10677;SDS011;5387;48.722;9.110;2023-07-02T07:31:03;19.17;;;8.00;;
10677;SDS011;5387;48.722;9.110;2023-07-02T07:33:30;12.30;;;7.28;;
10677;SDS011;5387;48.722;9.110;2023-07-02T07:35:56;12.93;;;6.68;;
10677;SDS011;5387;48.722;9.110;2023-07-02T07:38:24;16.00;;;7.40;;
10677;SDS011;5387;48.722;9.110;2023-07-02T07:40:51;16.85;;;8.80;;
10677;SDS011;5387;48.722;9.110;2023-07-02T07:43:18;17.02;;;8.50;;
10677;SDS011;5387;48.722;9.110;2023-07-02T07:45:45;17.77;;;8.35;;
10677;SDS011;5387;48.722;9.110;2023-07-02T07:48:11;14.93;;;7.32;;
10677;SDS011;5387;48.722;9.110;2023-07-02T07:50:38;17.13;;;8.60;;
10677;SDS011;5387;48.722;9.110;2023-07-02T07:53:05;15.38;;;8.68;;
10677;SDS011;5387;48.722;9.110;2023-07-02T07:55:33;22.55;;;10.52;;
10677;SDS011;5387;48.722;9.110;2023-07-02T07:58:00;15.40;;;8.43;;
10677;SDS011;5387;48.722;9.110;2023-07-02T08:00:27;17.05;;;8.70;;
10677;SDS011;5387;48.722;9.110;2023-07-02T08:02:53;14.50;;;6.88;;
10677;SDS011;5387;48.722;9.110;2023-07-02T08:05:21;17.65;;;9.38;;
10677;SDS011;5387;48.722;9.110;2023-07-02T08:07:48;24.08;;;8.77;;
10677;SDS011;5387;48.722;9.110;2023-07-02T08:10:15;16.98;;;9.27;;
10677;SDS011;5387;48.722;9.110;2023-07-02T08:12:43;16.30;;;8.48;;
10677;SDS011;5387;48.722;9.110;2023-07-02T08:15:10;19.63;;;8.27;;
10677;SDS011;5387;48.722;9.110;2023-07-02T08:17:37;16.05;;;8.60;;
10677;SDS011;5387;48.722;9.110;2023-07-02T08:20:04;21.90;;;9.30;;
10677;SDS011;5387;48.722;9.110;2023-07-02T08:22:34;18.65;;;8.50;;
10677;SDS011;5387;48.722;9.110;2023-07-02T08:25:02;14.45;;;7.57;;
10677;SDS011;5387;48.722;9.110;2023-07-02T08:27:34;16.02;;;8.82;;
10677;SDS011;5387;48.722;9.110;2023-07-02T08:30:03;17.23;;;9.13;;
10677;SDS011;5387;48.722;9.110;2023-07-02T08:32:30;17.73;;;7.63;;
10677;SDS011;5387;48.722;9.110;2023-07-02T08:34:57;17.33;;;9.52;;
10677;SDS011;5387;48.722;9.110;2023-07-02T08:37:24;28.50;;;10.20;;
10677;SDS011;5387;48.722;9.110;2023-07-02T08:39:51;13.90;;;8.70;;
10677;SDS011;5387;48.722;9.110;2023-07-02T08:42:18;20.83;;;9.88;;
10677;SDS011;5387;48.722;9.110;2023-07-02T08:44:45;25.67;;;10.20;;
10677;SDS011;5387;48.722;9.110;2023-07-02T08:47:14;13.40;;;6.80;;
10677;SDS011;5387;48.722;9.110;2023-07-02T08:49:41;17.40;;;8.82;;
10677;SDS011;5387;48.722;9.110;2023-07-02T08:52:08;20.63;;;8.80;;
10677;SDS011;5387;48.722;9.110;2023-07-02T08:54:35;18.13;;;7.93;;
10677;SDS011;5387;48.722;9.110;2023-07-02T08:57:03;19.45;;;8.98;;
10677;SDS011;5387;48.722;9.110;2023-07-02T08:59:30;15.02;;;8.77;;
10677;SDS011;5387;48.722;9.110;2023-07-02T09:01:57;14.25;;;8.00;;
10677;SDS011;5387;48.722;9.110;2023-07-02T09:04:25;14.43;;;7.68;;
10677;SDS011;5387;48.722;9.110;2023-07-02T09:07:02;15.02;;;7.88;;
10677;SDS011;5387;48.722;9.110;2023-07-02T09:09:30;14.40;;;8.68;;
10677;SDS011;5387;48.722;9.110;2023-07-02T09:11:57;13.30;;;8.13;;
10677;SDS011;5387;48.722;9.110;2023-07-02T09:14:24;13.10;;;7.55;;
10677;SDS011;5387;48.722;9.110;2023-07-02T09:17:04;13.88;;;8.02;;
10677;SDS011;5387;48.722;9.110;2023-07-02T09:19:35;14.75;;;7.57;;
10677;SDS011;5387;48.722;9.110;2023-07-02T09:22:03;15.98;;;8.13;;
10677;SDS011;5387;48.722;9.110;2023-07-02T09:24:31;18.13;;;8.30;;
10677;SDS011;5387;48.722;9.110;2023-07-02T09:26:58;12.80;;;7.38;;
10677;SDS011;5387;48.722;9.110;2023-07-02T09:29:27;14.32;;;7.10;;
10677;SDS011;5387;48.722;9.110;2023-07-02T09:31:55;17.25;;;7.70;;
10677;SDS011;5387;48.722;9.110;2023-07-02T09:34:26;15.38;;;7.72;;
10677;SDS011;5387;48.722;9.110;2023-07-02T09:36:56;12.02;;;7.15;;
10677;SDS011;5387;48.722;9.110;2023-07-02T09:39:25;13.63;;;7.43;;
10677;SDS011;5387;48.722;9.110;2023-07-02T09:41:54;16.63;;;8.10;;
10677;SDS011;5387;48.722;9.110;2023-07-02T09:44:22;12.98;;;7.82;;
10677;SDS011;5387;48.722;9.110;2023-07-02T09:46:52;16.60;;;8.10;;
10677;SDS011;5387;48.722;9.110;2023-07-02T09:49:24;13.38;;;8.00;;
10677;SDS011;5387;48.722;9.110;2023-07-02T09:51:52;13.10;;;7.05;;
10677;SDS011;5387;48.722;9.110;2023-07-02T09:54:20;17.95;;;9.15;;
10677;SDS011;5387;48.722;9.110;2023-07-02T09:56:47;17.08;;;8.70;;
10677;SDS011;5387;48.722;9.110;2023-07-02T09:59:14;18.90;;;9.77;;
10677;SDS011;5387;48.722;9.110;2023-07-02T10:01:41;23.48;;;9.95;;
10677;SDS011;5387;48.722;9.110;2023-07-02T10:04:11;15.80;;;9.32;;
10677;SDS011;5387;48.722;9.110;2023-07-02T10:06:45;18.77;;;10.45;;
10677;SDS011;5387;48.722;9.110;2023-07-02T10:09:13;16.95;;;9.27;;
10677;SDS011;5387;48.722;9.110;2023-07-02T10:11:41;21.83;;;10.25;;
10677;SDS011;5387;48.722;9.110;2023-07-02T10:14:08;20.20;;;10.70;;
10677;SDS011;5387;48.722;9.110;2023-07-02T10:16:47;18.40;;;11.13;;
10677;SDS011;5387;48.722;9.110;2023-07-02T10:19:15;18.65;;;10.40;;
10677;SDS011;5387;48.722;9.110;2023-07-02T10:21:42;23.42;;;12.13;;
10677;SDS011;5387;48.722;9.110;2023-07-02T10:24:11;20.88;;;10.13;;
10677;SDS011;5387;48.722;9.110;2023-07-02T10:26:39;22.20;;;10.13;;
10677;SDS011;5387;48.722;9.110;2023-07-02T10:29:19;15.82;;;9.27;;
10677;SDS011;5387;48.722;9.110;2023-07-02T10:31:49;16.23;;;9.52;;
10677;SDS011;5387;48.722;9.110;2023-07-02T10:34:27;17.42;;;9.38;;
10677;SDS011;5387;48.722;9.110;2023-07-02T10:36:55;14.70;;;8.82;;
10677;SDS011;5387;48.722;9.110;2023-07-02T10:39:23;15.23;;;9.13;;
10677;SDS011;5387;48.722;9.110;2023-07-02T10:41:49;16.15;;;9.30;;
10677;SDS011;5387;48.722;9.110;2023-07-02T10:44:18;15.80;;;8.80;;
10677;SDS011;5387;48.722;9.110;2023-07-02T10:46:44;17.30;;;8.95;;
10677;SDS011;5387;48.722;9.110;2023-07-02T10:49:11;15.23;;;9.60;;
10677;SDS011;5387;48.722;9.110;2023-07-02T10:51:38;16.15;;;9.20;;
10677;SDS011;5387;48.722;9.110;2023-07-02T10:54:05;17.92;;;9.20;;
10677;SDS011;5387;48.722;9.110;2023-07-02T10:56:32;20.88;;;10.30;;
10677;SDS011;5387;48.722;9.110;2023-07-02T10:59:00;16.60;;;10.38;;
10677;SDS011;5387;48.722;9.110;2023-07-02T11:01:27;20.13;;;9.48;;
10677;SDS011;5387;48.722;9.110;2023-07-02T11:03:56;17.02;;;9.23;;
10677;SDS011;5387;48.722;9.110;2023-07-02T11:06:24;18.23;;;9.48;;
10677;SDS011;5387;48.722;9.110;2023-07-02T11:08:51;15.13;;;8.38;;
10677;SDS011;5387;48.722;9.110;2023-07-02T11:11:19;13.00;;;7.47;;
10677;SDS011;5387;48.722;9.110;2023-07-02T11:13:47;16.65;;;8.25;;
10677;SDS011;5387;48.722;9.110;2023-07-02T11:16:21;15.40;;;9.25;;
10677;SDS011;5387;48.722;9.110;2023-07-02T11:18:51;15.98;;;8.82;;
10677;SDS011;5387;48.722;9.110;2023-07-02T11:21:18;18.08;;;8.88;;
10677;SDS011;5387;48.722;9.110;2023-07-02T11:23:45;13.18;;;7.25;;
10677;SDS011;5387;48.722;9.110;2023-07-02T11:26:12;16.85;;;8.98;;
10677;SDS011;5387;48.722;9.110;2023-07-02T11:28:47;17.75;;;9.02;;
10677;SDS011;5387;48.722;9.110;2023-07-02T11:31:25;14.57;;;8.23;;
10677;SDS011;5387;48.722;9.110;2023-07-02T11:33:52;19.83;;;9.50;;
10677;SDS011;5387;48.722;9.110;2023-07-02T11:36:20;15.45;;;8.57;;
10677;SDS011;5387;48.722;9.110;2023-07-02T11:38:48;13.50;;;7.90;;
10677;SDS011;5387;48.722;9.110;2023-07-02T11:41:15;17.23;;;8.45;;
10677;SDS011;5387;48.722;9.110;2023-07-02T11:43:42;17.08;;;8.38;;
10677;SDS011;5387;48.722;9.110;2023-07-02T11:46:09;14.80;;;9.00;;
10677;SDS011;5387;48.722;9.110;2023-07-02T11:48:37;16.55;;;8.13;;
10677;SDS011;5387;48.722;9.110;2023-07-02T11:51:04;15.63;;;8.30;;
10677;SDS011;5387;48.722;9.110;2023-07-02T11:53:31;14.95;;;8.52;;
10677;SDS011;5387;48.722;9.110;2023-07-02T11:55:57;15.27;;;9.18;;
10677;SDS011;5387;48.722;9.110;2023-07-02T11:58:24;13.07;;;8.90;;
10677;SDS011;5387;48.722;9.110;2023-07-02T12:00:51;12.55;;;8.65;;
10677;SDS011;5387;48.722;9.110;2023-07-02T12:03:18;14.05;;;7.78;;
10677;SDS011;5387;48.722;9.110;2023-07-02T12:05:46;11.88;;;8.63;;
10677;SDS011;5387;48.722;9.110;2023-07-02T12:08:13;17.40;;;9.05;;
10677;SDS011;5387;48.722;9.110;2023-07-02T12:10:40;13.13;;;8.10;;
10677;SDS011;5387;48.722;9.110;2023-07-02T12:13:06;17.08;;;8.38;;
10677;SDS011;5387;48.722;9.110;2023-07-02T12:15:33;11.95;;;8.02;;
10677;SDS011;5387;48.722;9.110;2023-07-02T12:18:00;20.67;;;10.20;;
10677;SDS011;5387;48.722;9.110;2023-07-02T12:20:27;14.35;;;8.90;;
10677;SDS011;5387;48.722;9.110;2023-07-02T12:22:55;13.45;;;8.35;;
10677;SDS011;5387;48.722;9.110;2023-07-02T12:25:22;15.57;;;8.77;;
10677;SDS011;5387;48.722;9.110;2023-07-02T12:27:49;15.43;;;8.60;;
10677;SDS011;5387;48.722;9.110;2023-07-02T12:30:16;13.65;;;8.55;;
10677;SDS011;5387;48.722;9.110;2023-07-02T12:32:43;14.00;;;9.07;;
10677;SDS011;5387;48.722;9.110;2023-07-02T12:35:11;13.52;;;7.78;;
10677;SDS011;5387;48.722;9.110;2023-07-02T12:37:42;15.13;;;9.52;;
10677;SDS011;5387;48.722;9.110;2023-07-02T12:40:12;12.65;;;8.50;;
10677;SDS011;5387;48.722;9.110;2023-07-02T12:45:07;12.73;;;7.75;;
10677;SDS011;5387;48.722;9.110;2023-07-02T12:47:35;17.50;;;9.30;;
10677;SDS011;5387;48.722;9.110;2023-07-02T12:50:02;12.85;;;9.00;;
10677;SDS011;5387;48.722;9.110;2023-07-02T12:52:29;16.83;;;9.30;;
10677;SDS011;5387;48.722;9.110;2023-07-02T12:54:56;16.23;;;9.43;;
10677;SDS011;5387;48.722;9.110;2023-07-02T12:57:24;15.38;;;9.40;;
10677;SDS011;5387;48.722;9.110;2023-07-02T12:59:52;13.57;;;8.85;;
10677;SDS011;5387;48.722;9.110;2023-07-02T13:02:18;16.23;;;9.80;;
10677;SDS011;5387;48.722;9.110;2023-07-02T13:04:46;11.80;;;9.00;;
10677;SDS011;5387;48.722;9.110;2023-07-02T13:07:13;16.02;;;9.30;;
10677;SDS011;5387;48.722;9.110;2023-07-02T13:09:40;13.82;;;8.90;;
10677;SDS011;5387;48.722;9.110;2023-07-02T13:12:07;16.17;;;9.70;;
10677;SDS011;5387;48.722;9.110;2023-07-02T13:14:36;15.07;;;8.68;;
10677;SDS011;5387;48.722;9.110;2023-07-02T13:17:03;16.52;;;9.50;;
10677;SDS011;5387;48.722;9.110;2023-07-02T13:19:30;16.55;;;8.60;;
10677;SDS011;5387;48.722;9.110;2023-07-02T13:21:57;11.80;;;8.18;;
10677;SDS011;5387;48.722;9.110;2023-07-02T13:24:24;14.60;;;7.85;;
10677;SDS011;5387;48.722;9.110;2023-07-02T13:26:51;12.40;;;8.50;;
10677;SDS011;5387;48.722;9.110;2023-07-02T13:29:18;11.90;;;7.85;;
10677;SDS011;5387;48.722;9.110;2023-07-02T13:31:46;14.27;;;9.02;;
10677;SDS011;5387;48.722;9.110;2023-07-02T13:34:13;14.07;;;8.35;;
10677;SDS011;5387;48.722;9.110;2023-07-02T13:36:40;15.82;;;8.52;;
10677;SDS011;5387;48.722;9.110;2023-07-02T13:39:07;13.40;;;8.73;;
10677;SDS011;5387;48.722;9.110;2023-07-02T13:41:33;15.27;;;8.18;;
10677;SDS011;5387;48.722;9.110;2023-07-02T13:44:00;16.23;;;8.18;;
10677;SDS011;5387;48.722;9.110;2023-07-02T13:46:27;12.10;;;8.50;;
10677;SDS011;5387;48.722;9.110;2023-07-02T13:48:55;14.73;;;9.05;;
10677;SDS011;5387;48.722;9.110;2023-07-02T13:51:22;14.63;;;8.68;;
10677;SDS011;5387;48.722;9.110;2023-07-02T13:53:49;16.17;;;8.55;;
10677;SDS011;5387;48.722;9.110;2023-07-02T13:56:16;18.42;;;8.68;;
10677;SDS011;5387;48.722;9.110;2023-07-02T13:58:58;18.65;;;8.50;;
10677;SDS011;5387;48.722;9.110;2023-07-02T14:01:26;15.65;;;8.40;;
10677;SDS011;5387;48.722;9.110;2023-07-02T14:03:53;17.02;;;8.98;;
10677;SDS011;5387;48.722;9.110;2023-07-02T14:06:20;14.93;;;8.45;;
10677;SDS011;5387;48.722;9.110;2023-07-02T14:08:47;15.85;;;8.80;;
10677;SDS011;5387;48.722;9.110;2023-07-02T14:11:13;13.25;;;8.32;;
10677;SDS011;5387;48.722;9.110;2023-07-02T14:13:40;12.60;;;8.15;;
10677;SDS011;5387;48.722;9.110;2023-07-02T14:16:08;14.73;;;8.73;;
10677;SDS011;5387;48.722;9.110;2023-07-02T14:18:35;14.40;;;8.52;;
10677;SDS011;5387;48.722;9.110;2023-07-02T14:21:02;13.88;;;8.05;;
10677;SDS011;5387;48.722;9.110;2023-07-02T14:23:29;14.25;;;8.60;;
10677;SDS011;5387;48.722;9.110;2023-07-02T14:25:56;14.38;;;9.30;;
10677;SDS011;5387;48.722;9.110;2023-07-02T14:28:22;15.02;;;8.75;;
10677;SDS011;5387;48.722;9.110;2023-07-02T14:30:55;14.52;;;8.35;;
10677;SDS011;5387;48.722;9.110;2023-07-02T14:33:23;16.45;;;9.27;;
10677;SDS011;5387;48.722;9.110;2023-07-02T14:35:50;13.15;;;8.25;;
10677;SDS011;5387;48.722;9.110;2023-07-02T14:38:17;17.40;;;9.75;;
10677;SDS011;5387;48.722;9.110;2023-07-02T14:40:44;15.70;;;9.68;;
10677;SDS011;5387;48.722;9.110;2023-07-02T14:43:11;15.68;;;8.43;;
10677;SDS011;5387;48.722;9.110;2023-07-02T14:45:42;14.82;;;9.07;;
10677;SDS011;5387;48.722;9.110;2023-07-02T14:48:12;13.30;;;9.02;;
10677;SDS011;5387;48.722;9.110;2023-07-02T14:50:43;14.90;;;8.55;;
10677;SDS011;5387;48.722;9.110;2023-07-02T14:53:10;13.77;;;8.52;;
10677;SDS011;5387;48.722;9.110;2023-07-02T14:55:37;17.20;;;10.02;;
10677;SDS011;5387;48.722;9.110;2023-07-02T14:58:05;15.48;;;9.38;;